Time;durP1;ratioP1;P1;durP2;ratioP2;P2;SDS_P1;SDS_P2;PMS_P1;PMS_P2;Temp;Humidity;BMP_temperature;BMP_pressure;BME280_temperature;BME280_humidity;BME280_pressure;Samples;Min_cycle;Max_cycle;Signal;HPM_P1;HPM_P2
2021/01/14 09:33:50;;;;;;;2.13;0.63;;;2.20;99.90;;;;;;5081706;22;20713;-74
2021/01/14 09:36:17;;;;;;;4.30;0.90;;;2.00;99.90;;;;;;5051966;28;20698;-80
2021/01/14 09:38:50;;;;;;;2.00;0.97;;;2.30;99.90;;;;;;5052074;28;20204;-75
2021/01/14 09:41:24;;;;;;;1.97;0.93;;;2.30;99.90;;;;;;5051950;28;20270;-77
2021/01/14 09:43:53;;;;;;;4.00;0.80;;;2.30;99.90;;;;;;5049655;28;20208;-76
2021/01/14 09:46:21;;;;;;;5.10;0.60;;;2.20;99.90;;;;;;5051821;28;20570;-74
2021/01/14 09:48:48;;;;;;;3.13;0.80;;;2.20;99.90;;;;;;5051786;28;20670;-73
2021/01/14 09:51:15;;;;;;;1.97;0.70;;;2.20;99.90;;;;;;5050899;28;20227;-73
2021/01/14 09:53:48;;;;;;;2.63;0.80;;;2.40;99.90;;;;;;5051725;28;20215;-75
2021/01/14 09:56:35;;;;;;;0.67;0.43;;;2.70;99.90;;;;;;5052067;28;20204;-77
2021/01/14 09:59:07;;;;;;;3.30;1.10;;;2.70;99.90;;;;;;5053413;28;20645;-77
2021/01/14 10:01:37;;;;;;;4.50;0.87;;;2.60;99.90;;;;;;5055392;28;20236;-74
2021/01/14 10:04:13;;;;;;;3.27;0.90;;;2.70;99.90;;;;;;5055366;28;20200;-78
2021/01/14 10:06:44;;;;;;;5.53;0.90;;;2.50;99.90;;;;;;5051586;28;20199;-74
2021/01/14 10:09:11;;;;;;;1.73;0.60;;;2.40;99.90;;;;;;5054638;28;20204;-74
2021/01/14 10:11:38;;;;;;;4.73;1.00;;;2.40;99.90;;;;;;5054008;28;20228;-73
2021/01/14 10:14:05;;;;;;;3.53;1.17;;;2.50;99.90;;;;;;5052939;28;20215;-71
2021/01/14 10:16:31;;;;;;;2.83;1.27;;;2.70;99.90;;;;;;5053836;28;20214;-69
2021/01/14 10:19:11;;;;;;;1.67;1.00;;;2.70;99.90;;;;;;5053729;28;20254;-74
2021/01/14 10:21:39;;;;;;;2.97;1.00;;;2.70;99.90;;;;;;5053713;28;20235;-75
2021/01/14 10:24:18;;;;;;;2.97;0.83;;;2.80;99.90;;;;;;5054220;28;20204;-79
2021/01/14 10:26:45;;;;;;;4.83;0.97;;;2.90;99.90;;;;;;5053437;28;20199;-75
2021/01/14 10:29:27;;;;;;;2.47;1.10;;;2.80;99.90;;;;;;5053048;28;20208;-71
2021/01/14 10:32:00;;;;;;;6.43;1.23;;;2.70;99.90;;;;;;5053528;28;20208;-71
2021/01/14 10:34:37;;;;;;;2.83;0.97;;;2.90;99.90;;;;;;5049979;28;20215;-72
2021/01/14 10:37:03;;;;;;;1.53;1.00;;;3.10;99.90;;;;;;5052744;28;20211;-72
2021/01/14 10:39:39;;;;;;;1.17;0.87;;;2.90;99.90;;;;;;5053586;28;20231;-74
2021/01/14 10:42:30;;;;;;;2.07;1.03;;;2.80;99.90;;;;;;5053641;28;20208;-69
2021/01/14 10:44:58;;;;;;;4.20;0.97;;;2.90;99.90;;;;;;5053378;28;20204;-73
2021/01/14 10:47:24;;;;;;;2.63;1.13;;;2.90;99.90;;;;;;5053179;28;20257;-71
2021/01/14 10:49:51;;;;;;;2.67;0.83;;;3.00;99.90;;;;;;5053333;28;20231;-77
2021/01/14 10:52:17;;;;;;;1.93;0.90;;;3.00;99.90;;;;;;5053280;28;20258;-76
2021/01/14 10:55:01;;;;;;;1.40;0.80;;;3.00;99.90;;;;;;5053841;28;20204;-73
2021/01/14 10:57:50;;;;;;;2.97;1.17;;;3.00;99.90;;;;;;5053423;28;20208;-73
2021/01/14 11:00:17;;;;;;;2.27;1.20;;;2.90;99.90;;;;;;5053641;28;20264;-73
2021/01/14 11:02:45;;;;;;;1.97;0.83;;;2.80;99.90;;;;;;5052964;28;20208;-79
2021/01/14 11:05:12;;;;;;;3.43;1.03;;;2.90;99.90;;;;;;5051078;28;20288;-77
2021/01/14 11:07:38;;;;;;;1.83;1.17;;;2.90;99.90;;;;;;5053048;28;20215;-76
2021/01/14 11:10:10;;;;;;;3.30;0.90;;;3.00;99.90;;;;;;5032631;28;20703;-77
2021/01/14 11:13:01;;;;;;;4.23;1.13;;;3.10;99.90;;;;;;5037139;28;20200;-76
2021/01/14 11:15:27;;;;;;;6.13;1.30;;;3.20;99.90;;;;;;5053579;28;20670;-74
2021/01/14 11:17:53;;;;;;;2.07;1.20;;;3.20;99.90;;;;;;5053136;28;20219;-75
2021/01/14 11:20:20;;;;;;;5.83;1.10;;;3.40;99.90;;;;;;5052730;28;20244;-75
2021/01/14 11:22:46;;;;;;;2.03;0.90;;;3.30;99.90;;;;;;5053086;28;20566;-75
2021/01/14 11:25:14;;;;;;;7.90;1.43;;;3.20;99.90;;;;;;5052919;28;20214;-75
2021/01/14 11:27:40;;;;;;;3.43;1.30;;;3.40;99.90;;;;;;5052159;28;20208;-76
2021/01/14 11:30:08;;;;;;;6.77;1.40;;;3.50;99.90;;;;;;5053234;28;20281;-74
2021/01/14 11:32:34;;;;;;;3.27;1.50;;;3.60;99.90;;;;;;5053117;28;20605;-73
2021/01/14 11:35:00;;;;;;;6.70;1.73;;;3.40;99.90;;;;;;5051953;28;20674;-74
2021/01/14 11:37:27;;;;;;;7.37;1.33;;;3.60;99.90;;;;;;5052627;28;20551;-75
2021/01/14 11:39:53;;;;;;;3.03;1.17;;;3.60;99.90;;;;;;5035484;28;20245;-73
2021/01/14 11:42:20;;;;;;;3.77;1.30;;;3.40;99.90;;;;;;5052034;28;20207;-77
2021/01/14 11:44:46;;;;;;;2.17;1.27;;;3.20;99.90;;;;;;5052945;28;20208;-74
2021/01/14 11:47:13;;;;;;;2.70;1.30;;;3.20;99.90;;;;;;5052448;28;20204;-72
2021/01/14 11:49:39;;;;;;;3.67;1.13;;;3.10;99.90;;;;;;5051797;28;20310;-74
2021/01/14 11:52:05;;;;;;;6.17;1.10;;;3.20;99.90;;;;;;5052604;28;20200;-76
2021/01/14 11:54:32;;;;;;;7.60;1.20;;;3.10;99.90;;;;;;5052572;28;20218;-76
2021/01/14 11:56:58;;;;;;;3.13;1.33;;;3.30;99.90;;;;;;5051480;28;20204;-77
2021/01/14 11:59:25;;;;;;;10.60;1.63;;;3.50;99.90;;;;;;5048773;28;20369;-74
2021/01/14 12:01:55;;;;;;;3.77;1.13;;;3.60;99.90;;;;;;5052259;28;20204;-74
2021/01/14 12:04:22;;;;;;;1.83;1.10;;;3.40;99.90;;;;;;5051444;28;20670;-77
2021/01/14 12:06:50;;;;;;;1.77;1.10;;;3.40;99.90;;;;;;5051382;28;20598;-73
2021/01/14 12:09:17;;;;;;;3.83;1.27;;;3.30;99.90;;;;;;5052750;28;20215;-73
2021/01/14 12:11:43;;;;;;;5.53;1.60;;;3.30;99.90;;;;;;5053547;28;20227;-73
2021/01/14 12:14:09;;;;;;;3.43;1.20;;;3.40;99.90;;;;;;5053175;28;20211;-73
2021/01/14 12:16:36;;;;;;;3.00;1.57;;;3.50;99.90;;;;;;5053294;28;20212;-72
2021/01/14 12:19:03;;;;;;;3.63;1.30;;;3.50;99.90;;;;;;5052638;28;20209;-73
2021/01/14 12:21:29;;;;;;;7.90;1.67;;;3.50;99.90;;;;;;5051951;28;20698;-72
2021/01/14 12:23:55;;;;;;;2.27;1.17;;;3.40;99.90;;;;;;5053152;28;20215;-73
2021/01/14 12:26:22;;;;;;;7.47;1.57;;;3.40;99.90;;;;;;5053250;28;20291;-73
2021/01/14 12:28:48;;;;;;;2.83;1.10;;;3.40;99.90;;;;;;5052838;28;20659;-73
2021/01/14 12:31:15;;;;;;;5.70;1.50;;;3.50;99.90;;;;;;5053413;28;20224;-73
2021/01/14 12:33:42;;;;;;;10.43;1.70;;;3.60;99.90;;;;;;5052942;28;20223;-72
2021/01/14 12:36:08;;;;;;;4.60;1.27;;;3.60;99.90;;;;;;5052685;28;20212;-72
2021/01/14 12:38:34;;;;;;;3.40;1.50;;;3.40;99.90;;;;;;5052865;28;20216;-72
2021/01/14 12:41:00;;;;;;;6.13;1.53;;;3.40;99.90;;;;;;5052806;28;20232;-73
2021/01/14 12:43:27;;;;;;;7.23;1.40;;;3.50;99.90;;;;;;5052574;28;20659;-73
2021/01/14 12:45:53;;;;;;;2.30;1.17;;;3.50;99.90;;;;;;5052779;28;20204;-73
2021/01/14 12:48:20;;;;;;;2.57;1.53;;;3.70;99.90;;;;;;5052482;28;20215;-72
2021/01/14 12:50:47;;;;;;;4.40;1.93;;;3.70;99.90;;;;;;5052166;28;20556;-72
2021/01/14 12:53:14;;;;;;;3.27;1.30;;;3.70;99.90;;;;;;5052980;28;20219;-73
2021/01/14 12:55:40;;;;;;;4.50;1.87;;;3.60;99.90;;;;;;5052299;28;20238;-73
2021/01/14 12:58:07;;;;;;;4.37;1.60;;;3.60;99.90;;;;;;5052374;28;20208;-73
2021/01/14 13:00:33;;;;;;;2.60;1.17;;;3.50;99.90;;;;;;5052233;28;20720;-72
2021/01/14 13:02:59;;;;;;;1.87;1.33;;;3.60;99.90;;;;;;5052567;28;20211;-73
2021/01/14 13:05:25;;;;;;;4.33;1.47;;;3.60;99.90;;;;;;5052309;28;20204;-73
2021/01/14 13:07:52;;;;;;;10.07;2.33;;;3.60;99.90;;;;;;5052094;28;20662;-72
2021/01/14 13:10:18;;;;;;;4.93;1.43;;;3.60;99.90;;;;;;5052242;28;20702;-73
2021/01/14 13:12:45;;;;;;;7.17;1.83;;;3.50;99.90;;;;;;5051997;28;20211;-73
2021/01/14 13:15:11;;;;;;;7.20;1.50;;;3.50;99.90;;;;;;5049151;28;20208;-73
2021/01/14 13:17:37;;;;;;;4.87;1.60;;;3.60;99.90;;;;;;5052656;28;20203;-73
2021/01/14 13:20:05;;;;;;;6.63;2.03;;;3.70;99.90;;;;;;5052042;28;20713;-72
2021/01/14 13:22:31;;;;;;;4.00;1.10;;;3.60;99.90;;;;;;5052165;28;20215;-73
2021/01/14 13:24:58;;;;;;;7.40;1.70;;;3.70;99.90;;;;;;5052185;28;20200;-72
2021/01/14 13:27:24;;;;;;;7.43;1.53;;;3.60;99.90;;;;;;5051956;28;20208;-72
2021/01/14 13:29:51;;;;;;;4.70;1.73;;;3.60;99.90;;;;;;5051665;28;20220;-72
2021/01/14 13:32:17;;;;;;;5.67;2.03;;;3.70;99.90;;;;;;5053248;28;20208;-72
2021/01/14 13:34:43;;;;;;;7.87;2.27;;;3.70;99.90;;;;;;5056037;28;20617;-73
2021/01/14 13:37:09;;;;;;;4.10;1.77;;;3.60;99.90;;;;;;5056276;28;20254;-73
2021/01/14 13:39:36;;;;;;;10.37;2.27;;;3.50;99.90;;;;;;5056292;28;20235;-73
2021/01/14 13:42:03;;;;;;;9.73;1.87;;;3.60;99.90;;;;;;5055944;28;20204;-72
2021/01/14 13:44:29;;;;;;;5.07;1.70;;;3.50;99.90;;;;;;5056200;28;20304;-73
2021/01/14 13:46:55;;;;;;;2.83;1.40;;;3.50;99.90;;;;;;5055907;28;20211;-71
2021/01/14 13:49:23;;;;;;;3.60;1.43;;;3.50;99.90;;;;;;5055836;28;20551;-76
2021/01/14 13:51:50;;;;;;;3.53;1.40;;;3.50;99.90;;;;;;5056416;28;20250;-73
2021/01/14 13:54:19;;;;;;;2.13;1.07;;;3.40;99.90;;;;;;5056125;28;20208;-71
2021/01/14 13:56:45;;;;;;;2.97;1.30;;;3.50;99.90;;;;;;5055949;28;20208;-72
2021/01/14 13:59:13;;;;;;;2.80;1.60;;;3.40;99.90;;;;;;5055830;28;20284;-73
2021/01/14 14:01:43;;;;;;;2.30;1.30;;;3.40;99.90;;;;;;5055921;28;20234;-73
2021/01/14 14:04:09;;;;;;;5.43;1.80;;;3.40;99.90;;;;;;5055731;28;20250;-73
2021/01/14 14:06:36;;;;;;;2.10;1.13;;;3.50;99.90;;;;;;5055937;28;20204;-72
2021/01/14 14:09:05;;;;;;;4.27;1.93;;;3.40;99.90;;;;;;5055710;28;20204;-73
2021/01/14 14:11:31;;;;;;;6.63;1.43;;;3.40;99.90;;;;;;5055578;28;20231;-72
2021/01/14 14:13:57;;;;;;;2.63;1.40;;;3.50;99.90;;;;;;5055077;28;20641;-74
2021/01/14 14:16:25;;;;;;;2.77;1.60;;;3.60;99.90;;;;;;5055716;28;20208;-72
2021/01/14 14:18:52;;;;;;;6.77;1.50;;;3.60;99.90;;;;;;5055893;28;20204;-77
2021/01/14 14:21:18;;;;;;;1.90;0.93;;;3.70;99.90;;;;;;5054856;28;20694;-72
2021/01/14 14:23:46;;;;;;;8.07;1.27;;;3.70;99.90;;;;;;5055250;28;20204;-70
2021/01/14 14:26:12;;;;;;;6.83;1.47;;;3.50;99.90;;;;;;5055515;28;20574;-78
2021/01/14 14:28:39;;;;;;;2.40;1.30;;;3.40;99.90;;;;;;5055248;28;20215;-74
2021/01/14 14:31:05;;;;;;;3.13;1.00;;;3.50;99.90;;;;;;5055473;28;20239;-72
2021/01/14 14:33:32;;;;;;;1.23;0.80;;;3.50;99.90;;;;;;5055177;28;20584;-71
2021/01/14 14:35:58;;;;;;;1.60;1.00;;;3.50;99.90;;;;;;5054419;28;20685;-73
2021/01/14 14:38:24;;;;;;;2.47;0.97;;;3.50;99.90;;;;;;5054975;28;20208;-74
2021/01/14 14:40:51;;;;;;;2.30;0.77;;;3.50;99.90;;;;;;5054921;28;20614;-73
2021/01/14 14:43:17;;;;;;;1.63;0.90;;;3.50;99.90;;;;;;5054926;28;20270;-72
2021/01/14 14:45:44;;;;;;;1.80;0.73;;;3.60;99.90;;;;;;5054466;28;20207;-71
2021/01/14 14:48:10;;;;;;;4.70;0.90;;;3.50;99.90;;;;;;5055199;28;20215;-72
2021/01/14 14:50:37;;;;;;;1.00;0.73;;;3.50;99.90;;;;;;5054663;28;20236;-76
2021/01/14 14:53:04;;;;;;;1.30;1.00;;;3.50;99.90;;;;;;5049518;28;20204;-77
2021/01/14 14:55:31;;;;;;;7.27;0.73;;;3.40;99.90;;;;;;5052705;28;20570;-74
2021/01/14 14:57:58;;;;;;;2.07;1.10;;;3.30;99.90;;;;;;5053367;28;20303;-70
2021/01/14 15:00:26;;;;;;;1.83;0.80;;;3.30;99.90;;;;;;5052831;28;20239;-75
2021/01/14 15:02:53;;;;;;;1.57;0.90;;;3.40;99.90;;;;;;5054326;28;20208;-80
2021/01/14 15:05:19;;;;;;;1.40;0.80;;;3.30;99.90;;;;;;5053746;28;20211;-76
2021/01/14 15:07:46;;;;;;;1.73;1.00;;;3.20;99.90;;;;;;5054320;28;20215;-81
2021/01/14 15:10:13;;;;;;;7.43;0.70;;;3.20;99.90;;;;;;5054190;28;20224;-74
2021/01/14 15:12:39;;;;;;;2.67;0.70;;;3.10;99.90;;;;;;5053399;28;20208;-73
2021/01/14 15:15:07;;;;;;;2.03;0.90;;;3.10;99.90;;;;;;5052991;28;20204;-76
2021/01/14 15:17:33;;;;;;;1.40;0.70;;;3.10;99.90;;;;;;5053298;28;20295;-78
2021/01/14 15:19:59;;;;;;;2.90;1.27;;;3.10;99.90;;;;;;5052809;28;20240;-73
2021/01/14 15:22:26;;;;;;;1.40;1.10;;;3.10;99.90;;;;;;5052446;28;20200;-84
2021/01/14 15:24:53;;;;;;;1.23;1.00;;;3.10;99.90;;;;;;5052882;28;20266;-73
2021/01/14 15:27:19;;;;;;;1.83;0.90;;;3.20;99.90;;;;;;5052690;28;20208;-75
2021/01/14 15:29:45;;;;;;;3.33;1.20;;;3.20;99.90;;;;;;5049830;28;20207;-77
2021/01/14 15:32:11;;;;;;;4.43;1.10;;;3.20;99.90;;;;;;5054457;28;20207;-81
2021/01/14 15:34:38;;;;;;;2.20;0.90;;;3.40;99.90;;;;;;5053610;28;20297;-82
2021/01/14 15:37:06;;;;;;;2.40;0.97;;;3.40;99.90;;;;;;5054111;28;20325;-78
2021/01/14 15:39:32;;;;;;;2.47;0.67;;;3.30;99.90;;;;;;5053903;28;20232;-75
2021/01/14 15:41:59;;;;;;;4.47;1.27;;;3.30;99.90;;;;;;5053791;28;20714;-75
2021/01/14 15:44:25;;;;;;;1.40;0.73;;;3.30;99.90;;;;;;5054027;28;20205;-77
2021/01/14 15:46:52;;;;;;;1.27;0.67;;;3.30;99.90;;;;;;5054055;28;20215;-78
2021/01/14 15:49:18;;;;;;;3.97;0.87;;;3.20;99.90;;;;;;5053268;28;20204;-77
2021/01/14 15:51:44;;;;;;;4.10;1.43;;;3.20;99.90;;;;;;5053787;28;20232;-77
2021/01/14 15:54:11;;;;;;;1.47;0.83;;;3.20;99.90;;;;;;5054087;28;20204;-79
2021/01/14 15:56:38;;;;;;;2.47;0.77;;;3.10;99.90;;;;;;5053266;28;20698;-78
2021/01/14 15:59:32;;;;;;;1.13;0.53;;;3.10;99.90;;;;;;5054358;28;20249;-79
2021/01/14 16:02:00;;;;;;;1.43;0.80;;;3.00;99.90;;;;;;5034583;28;20201;-79
2021/01/14 16:04:26;;;;;;;0.90;0.63;;;3.10;99.90;;;;;;5041429;28;20204;-76
2021/01/14 16:06:53;;;;;;;1.57;0.90;;;3.10;99.90;;;;;;5053995;28;20219;-77
2021/01/14 16:09:20;;;;;;;2.57;1.00;;;3.00;99.90;;;;;;5053599;28;20204;-77
2021/01/14 16:11:46;;;;;;;3.40;1.20;;;3.00;99.90;;;;;;5053602;28;20277;-81
2021/01/14 16:14:12;;;;;;;4.40;1.13;;;2.90;99.90;;;;;;5053724;28;20598;-75
2021/01/14 16:16:40;;;;;;;2.13;1.23;;;2.80;99.90;;;;;;5053711;28;20216;-79
2021/01/14 16:19:07;;;;;;;6.73;1.90;;;2.80;99.90;;;;;;5053246;28;20281;-79
2021/01/14 16:21:35;;;;;;;4.97;1.40;;;2.90;99.90;;;;;;5053119;28;20231;-75
2021/01/14 16:24:01;;;;;;;5.27;1.93;;;2.80;99.90;;;;;;5053259;28;20262;-77
2021/01/14 16:26:28;;;;;;;6.77;1.90;;;2.80;99.90;;;;;;5052752;28;20211;-76
2021/01/14 16:28:54;;;;;;;6.07;1.53;;;2.80;99.90;;;;;;5053327;28;20646;-80
2021/01/14 16:31:20;;;;;;;3.47;1.53;;;2.90;99.90;;;;;;5053120;28;20235;-78
2021/01/14 16:33:47;;;;;;;4.77;1.77;;;2.90;99.90;;;;;;5053677;28;20208;-80
2021/01/14 16:36:13;;;;;;;18.07;2.57;;;2.90;99.90;;;;;;5054312;28;20212;-75
2021/01/14 16:38:41;;;;;;;3.20;1.50;;;2.90;99.90;;;;;;5054110;28;20215;-82
2021/01/14 16:41:21;;;;;;;3.07;2.17;;;2.80;99.90;;;;;;5053033;28;20236;-81
2021/01/14 16:43:47;;;;;;;3.57;1.33;;;2.80;99.90;;;;;;5053349;28;20204;-75
2021/01/14 16:46:19;;;;;;;7.43;2.30;;;2.80;99.90;;;;;;5053172;28;20215;-78
2021/01/14 16:48:48;;;;;;;5.13;2.10;;;2.80;99.90;;;;;;5052866;28;20266;-76
2021/01/14 16:51:14;;;;;;;2.67;1.70;;;2.90;99.90;;;;;;5053087;28;20235;-75
2021/01/14 16:53:41;;;;;;;6.97;2.03;;;2.90;99.90;;;;;;5052738;28;20234;-75
2021/01/14 16:56:07;;;;;;;2.50;1.30;;;3.00;99.90;;;;;;5052740;28;20473;-79
2021/01/14 16:58:34;;;;;;;5.50;1.90;;;2.90;99.90;;;;;;5052560;28;20204;-81
2021/01/14 17:01:00;;;;;;;8.10;2.60;;;2.90;99.90;;;;;;5053931;28;20243;-79
2021/01/14 17:03:26;;;;;;;5.43;2.40;;;3.00;99.90;;;;;;5053840;28;20207;-76
2021/01/14 17:05:53;;;;;;;3.13;1.77;;;2.90;99.90;;;;;;5052656;28;20211;-76
2021/01/14 17:08:19;;;;;;;3.57;2.03;;;2.90;99.90;;;;;;5052370;28;20207;-76
2021/01/14 17:10:46;;;;;;;3.77;1.77;;;2.90;99.90;;;;;;5049221;28;20401;-69
2021/01/14 17:13:12;;;;;;;5.07;1.87;;;2.90;99.90;;;;;;5050947;28;20503;-75
2021/01/14 17:15:39;;;;;;;8.13;2.20;;;2.90;99.90;;;;;;5050476;28;20213;-75
2021/01/14 17:18:06;;;;;;;6.57;2.17;;;2.90;99.90;;;;;;5050526;28;20208;-79
2021/01/14 17:20:32;;;;;;;5.33;1.77;;;2.90;99.90;;;;;;5050746;28;20298;-77
2021/01/14 17:22:59;;;;;;;4.93;2.30;;;2.90;99.90;;;;;;5051374;28;20204;-81
2021/01/14 17:25:26;;;;;;;6.67;1.77;;;2.90;99.90;;;;;;5050817;28;20223;-75
2021/01/14 17:27:52;;;;;;;6.03;2.10;;;3.00;99.90;;;;;;5050991;28;20207;-77
2021/01/14 17:30:19;;;;;;;10.17;2.03;;;2.90;99.90;;;;;;5051258;28;20231;-75
2021/01/14 17:32:45;;;;;;;10.47;2.43;;;2.90;99.90;;;;;;5050561;28;20211;-78
2021/01/14 17:35:12;;;;;;;4.60;2.40;;;2.90;99.90;;;;;;5050466;28;20565;-77
2021/01/14 17:37:38;;;;;;;7.83;2.50;;;2.90;99.90;;;;;;5051184;28;20208;-75
2021/01/14 17:40:09;;;;;;;3.07;1.90;;;2.80;99.90;;;;;;5050972;28;20235;-76
2021/01/14 17:42:35;;;;;;;6.80;2.00;;;2.80;99.90;;;;;;5050191;28;20204;-76
2021/01/14 17:45:02;;;;;;;8.67;2.30;;;2.80;99.90;;;;;;5050726;28;20200;-76
2021/01/14 17:47:31;;;;;;;8.27;3.20;;;2.80;99.90;;;;;;5050633;28;20259;-75
2021/01/14 17:49:57;;;;;;;10.33;2.53;;;2.70;99.90;;;;;;5050963;28;20282;-75
2021/01/14 17:52:23;;;;;;;9.57;2.80;;;2.70;99.90;;;;;;5051228;28;20208;-77
2021/01/14 17:54:50;;;;;;;4.10;2.60;;;2.80;99.90;;;;;;5050510;28;20540;-74
2021/01/14 17:57:17;;;;;;;4.40;2.70;;;2.80;99.90;;;;;;5050328;28;20200;-74
2021/01/14 17:59:43;;;;;;;4.00;2.13;;;2.70;99.90;;;;;;5050854;28;20322;-74
2021/01/14 18:02:10;;;;;;;9.13;3.03;;;2.80;99.90;;;;;;5050793;28;20212;-74
2021/01/14 18:04:36;;;;;;;12.60;2.90;;;2.90;99.90;;;;;;5049990;28;20207;-74
2021/01/14 18:07:04;;;;;;;9.87;3.07;;;2.90;99.90;;;;;;5050373;28;20670;-74
2021/01/14 18:09:30;;;;;;;7.57;2.97;;;2.90;99.90;;;;;;5050445;28;20243;-75
2021/01/14 18:11:57;;;;;;;4.70;3.43;;;2.90;99.90;;;;;;5049746;28;20208;-76
2021/01/14 18:14:24;;;;;;;11.30;2.90;;;2.90;99.90;;;;;;5048903;28;20208;-75
2021/01/14 18:16:50;;;;;;;6.83;3.27;;;2.90;99.90;;;;;;5046781;28;20208;-73
2021/01/14 18:19:17;;;;;;;13.50;3.60;;;2.90;99.90;;;;;;5048397;28;20565;-74
2021/01/14 18:21:43;;;;;;;6.13;2.63;;;2.80;99.90;;;;;;5055400;28;20243;-74
2021/01/14 18:24:09;;;;;;;7.03;3.27;;;2.70;99.90;;;;;;5055544;28;20208;-73
2021/01/14 18:26:35;;;;;;;5.67;3.00;;;2.60;99.90;;;;;;5055189;28;20266;-75
2021/01/14 18:29:02;;;;;;;6.23;3.13;;;2.60;99.90;;;;;;5055145;28;20215;-79
2021/01/14 18:31:29;;;;;;;5.23;2.33;;;2.50;99.90;;;;;;5055419;28;20228;-75
2021/01/14 18:33:56;;;;;;;8.70;3.00;;;2.50;99.90;;;;;;5055112;28;20582;-77
2021/01/14 18:36:23;;;;;;;9.27;4.00;;;2.50;99.90;;;;;;5055522;28;20207;-79
2021/01/14 18:38:50;;;;;;;8.90;3.27;;;2.60;99.90;;;;;;5055307;28;20204;-80
2021/01/14 18:41:21;;;;;;;7.17;3.40;;;2.60;99.90;;;;;;5054715;28;20605;-75
2021/01/14 18:43:48;;;;;;;5.10;3.20;;;2.60;99.90;;;;;;5055309;28;20266;-78
2021/01/14 18:46:14;;;;;;;9.40;3.20;;;2.60;99.90;;;;;;5055435;28;20250;-79
2021/01/14 18:48:41;;;;;;;6.30;2.93;;;2.60;99.90;;;;;;5054506;28;20594;-73
2021/01/14 18:51:10;;;;;;;4.87;3.07;;;2.60;99.90;;;;;;5054160;28;20710;-74
2021/01/14 18:53:37;;;;;;;6.53;3.20;;;2.60;99.90;;;;;;5054998;28;20204;-74
2021/01/14 18:56:06;;;;;;;5.70;2.53;;;2.60;99.90;;;;;;5055252;28;20200;-78
2021/01/14 18:58:34;;;;;;;7.73;2.77;;;2.70;99.90;;;;;;5055212;28;20680;-77
2021/01/14 19:01:00;;;;;;;7.73;2.40;;;2.80;99.90;;;;;;5055178;28;20289;-74
2021/01/14 19:03:27;;;;;;;4.47;2.40;;;2.70;99.90;;;;;;5055173;28;20547;-74
2021/01/14 19:05:54;;;;;;;6.60;2.93;;;2.70;99.90;;;;;;5055118;28;20211;-78
2021/01/14 19:08:20;;;;;;;7.50;2.60;;;2.70;99.90;;;;;;5055139;28;20208;-74
2021/01/14 19:10:47;;;;;;;5.63;2.70;;;2.70;99.90;;;;;;5054841;28;20239;-79
2021/01/14 19:13:13;;;;;;;9.60;2.83;;;2.70;99.90;;;;;;5055280;28;20215;-74
2021/01/14 19:15:40;;;;;;;5.23;2.03;;;2.70;99.90;;;;;;5055050;28;20238;-74
2021/01/14 19:18:06;;;;;;;4.03;2.03;;;2.80;99.90;;;;;;5054854;28;20686;-79
2021/01/14 19:20:32;;;;;;;7.87;2.80;;;2.80;99.90;;;;;;5054596;28;20721;-74
2021/01/14 19:22:59;;;;;;;3.93;2.10;;;2.70;99.90;;;;;;5054657;28;20204;-78
2021/01/14 19:25:25;;;;;;;5.47;2.40;;;2.60;99.90;;;;;;5054827;28;20689;-79
2021/01/14 19:27:52;;;;;;;3.23;2.00;;;2.50;99.90;;;;;;5051451;28;20227;-74
2021/01/14 19:30:21;;;;;;;5.40;2.37;;;2.50;99.90;;;;;;5044379;28;20730;-74
2021/01/14 19:32:47;;;;;;;7.23;2.47;;;2.50;99.90;;;;;;5043266;28;20744;-80
2021/01/14 19:35:14;;;;;;;9.03;2.77;;;2.40;99.90;;;;;;5043728;28;20212;-79
2021/01/14 19:37:41;;;;;;;3.67;1.83;;;2.40;99.90;;;;;;5045084;28;20673;-75
2021/01/14 19:40:10;;;;;;;7.20;2.17;;;2.40;99.90;;;;;;5032911;28;20654;-75
2021/01/14 19:42:38;;;;;;;7.67;1.97;;;2.40;99.90;;;;;;5048372;28;20207;-74
2021/01/14 19:45:06;;;;;;;6.67;2.10;;;2.40;99.90;;;;;;5046411;28;20219;-75
2021/01/14 19:47:33;;;;;;;4.47;2.40;;;2.40;99.90;;;;;;5041694;28;20216;-74
2021/01/14 19:49:59;;;;;;;9.73;2.97;;;2.50;99.90;;;;;;5046797;28;20224;-74
2021/01/14 19:52:25;;;;;;;4.30;2.33;;;2.50;99.90;;;;;;5041439;28;20571;-80
2021/01/14 19:54:52;;;;;;;5.73;2.10;;;2.50;99.90;;;;;;5045854;28;20254;-74
2021/01/14 19:57:19;;;;;;;4.87;2.20;;;2.60;99.90;;;;;;5044235;28;20204;-74
2021/01/14 19:59:45;;;;;;;7.00;2.77;;;2.60;99.90;;;;;;5043503;28;20568;-80
2021/01/14 20:02:12;;;;;;;2.97;1.90;;;2.60;99.90;;;;;;5044498;28;20208;-75
2021/01/14 20:04:38;;;;;;;3.20;1.80;;;2.70;99.90;;;;;;5044067;28;20204;-79
2021/01/14 20:07:04;;;;;;;5.20;2.80;;;2.60;99.90;;;;;;5042478;28;20417;-80
2021/01/14 20:09:31;;;;;;;4.00;2.20;;;2.60;99.90;;;;;;5047277;28;20216;-75
2021/01/14 20:11:57;;;;;;;6.03;2.30;;;2.60;99.90;;;;;;5051817;28;20591;-75
2021/01/14 20:14:24;;;;;;;8.23;2.40;;;2.50;99.90;;;;;;5039977;28;20266;-75
2021/01/14 20:16:51;;;;;;;4.20;2.00;;;2.50;99.90;;;;;;5033296;28;20211;-74
2021/01/14 20:19:17;;;;;;;11.30;3.17;;;2.60;99.90;;;;;;5033645;28;20201;-75
2021/01/14 20:21:44;;;;;;;9.27;2.50;;;2.70;99.90;;;;;;5033734;28;20237;-80
2021/01/14 20:24:11;;;;;;;6.80;2.50;;;2.80;99.90;;;;;;5035670;28;20694;-74
2021/01/14 20:26:37;;;;;;;8.90;2.30;;;2.80;99.90;;;;;;5033146;28;20219;-79
2021/01/14 20:29:04;;;;;;;5.13;2.33;;;2.70;99.90;;;;;;5033009;28;20208;-78
2021/01/14 20:31:31;;;;;;;5.47;2.03;;;2.50;99.90;;;;;;5033322;28;20225;-75
2021/01/14 20:33:57;;;;;;;3.13;2.17;;;2.40;99.90;;;;;;5032979;28;20217;-79
2021/01/14 20:36:24;;;;;;;3.93;2.13;;;2.50;99.90;;;;;;5033244;28;20209;-79
2021/01/14 20:38:50;;;;;;;5.27;2.53;;;2.50;99.90;;;;;;5033319;28;20217;-78
2021/01/14 20:41:17;;;;;;;6.77;2.10;;;2.50;99.90;;;;;;5032742;28;20233;-75
2021/01/14 20:43:44;;;;;;;3.57;2.27;;;2.40;99.90;;;;;;5032524;28;20227;-74
2021/01/14 20:46:11;;;;;;;8.00;2.47;;;2.40;99.90;;;;;;5033259;28;20211;-75
2021/01/14 20:48:38;;;;;;;10.17;2.33;;;2.30;99.90;;;;;;5033153;28;20212;-79
2021/01/14 20:51:05;;;;;;;7.07;2.30;;;2.20;99.90;;;;;;5038554;28;20223;-80
2021/01/14 20:53:31;;;;;;;3.23;1.70;;;2.10;99.90;;;;;;5053243;28;20663;-74
2021/01/14 20:55:57;;;;;;;6.07;2.17;;;2.10;99.90;;;;;;5052163;28;20203;-74
2021/01/14 20:58:24;;;;;;;4.40;2.47;;;2.10;99.90;;;;;;5052834;28;20208;-80
2021/01/14 21:00:50;;;;;;;3.20;1.97;;;2.20;99.90;;;;;;5051886;28;20602;-78
2021/01/14 21:03:16;;;;;;;6.07;2.07;;;2.10;99.90;;;;;;5052912;28;20204;-76
2021/01/14 21:05:43;;;;;;;4.87;2.43;;;2.10;99.90;;;;;;5052452;28;20204;-75
2021/01/14 21:08:10;;;;;;;6.30;2.20;;;2.10;99.90;;;;;;5052411;28;20203;-79
2021/01/14 21:10:36;;;;;;;3.97;1.63;;;2.10;99.90;;;;;;5052625;28;20224;-78
2021/01/14 21:13:02;;;;;;;3.97;2.17;;;2.10;99.90;;;;;;5052879;28;20207;-74
2021/01/14 21:15:28;;;;;;;4.73;2.20;;;2.10;99.90;;;;;;5052468;28;20200;-80
2021/01/14 21:17:55;;;;;;;6.23;2.20;;;2.00;99.90;;;;;;5052800;28;20208;-79
2021/01/14 21:20:21;;;;;;;8.43;2.13;;;2.00;99.90;;;;;;5051785;28;20232;-76
2021/01/14 21:22:48;;;;;;;2.53;1.70;;;2.10;99.90;;;;;;5052231;28;20204;-74
2021/01/14 21:25:14;;;;;;;5.73;2.20;;;2.10;99.90;;;;;;5052098;28;20212;-76
2021/01/14 21:27:41;;;;;;;4.43;2.27;;;2.00;99.90;;;;;;5051752;28;20204;-78
2021/01/14 21:30:09;;;;;;;3.83;2.13;;;1.90;99.90;;;;;;5053042;28;20705;-74
2021/01/14 21:32:37;;;;;;;5.80;2.63;;;1.90;99.90;;;;;;5052380;28;20685;-74
2021/01/14 21:35:05;;;;;;;4.70;2.10;;;1.90;99.90;;;;;;5051959;28;20238;-75
2021/01/14 21:37:31;;;;;;;11.20;2.53;;;1.90;99.90;;;;;;5052006;28;20212;-80
2021/01/14 21:39:58;;;;;;;5.53;2.07;;;1.80;99.90;;;;;;5051742;28;20224;-74
2021/01/14 21:42:25;;;;;;;7.77;2.47;;;1.80;99.90;;;;;;5052538;28;20211;-79
2021/01/14 21:44:52;;;;;;;3.50;1.93;;;1.70;99.90;;;;;;5052279;28;20208;-74
2021/01/14 21:47:18;;;;;;;3.73;2.20;;;1.70;99.90;;;;;;5052446;28;20250;-78
2021/01/14 21:49:45;;;;;;;4.43;2.20;;;1.70;99.90;;;;;;5052269;28;20223;-78
2021/01/14 21:52:11;;;;;;;4.77;1.70;;;1.70;99.90;;;;;;5052353;28;20204;-78
2021/01/14 21:54:37;;;;;;;9.17;2.30;;;1.70;99.90;;;;;;5055639;28;20250;-75
2021/01/14 21:57:05;;;;;;;7.97;1.83;;;1.80;99.90;;;;;;5056576;28;20223;-79
2021/01/14 21:59:31;;;;;;;2.60;1.90;;;1.70;99.90;;;;;;5056075;28;20203;-78
2021/01/14 22:01:57;;;;;;;7.80;2.27;;;1.70;99.90;;;;;;5056362;28;20586;-74
2021/01/14 22:04:23;;;;;;;4.00;1.80;;;1.70;99.90;;;;;;5056096;28;20200;-79
2021/01/14 22:06:50;;;;;;;3.43;1.80;;;1.60;99.90;;;;;;5053826;28;20212;-78
2021/01/14 22:09:17;;;;;;;2.83;2.00;;;1.70;99.90;;;;;;5052409;28;20205;-74
2021/01/14 22:11:43;;;;;;;4.53;1.97;;;1.70;99.90;;;;;;5034187;28;20221;-74
2021/01/14 22:14:11;;;;;;;5.17;2.20;;;1.60;99.90;;;;;;5034336;28;20205;-77
2021/01/14 22:16:38;;;;;;;4.13;2.20;;;1.60;99.90;;;;;;5034862;28;20204;-78
2021/01/14 22:19:06;;;;;;;2.13;1.47;;;1.70;99.90;;;;;;5046645;28;20605;-78
